createdAt,value
2018-05-13T00:00:23.996Z,100004.81
2018-05-13T00:01:29.754Z,100006.27
2018-05-13T00:02:36.543Z,100006.80
2018-05-13T00:03:43.120Z,100003.04
2018-05-13T00:04:48.891Z,100000.52
2018-05-13T00:05:54.818Z,99994.91
2018-05-13T00:07:00.590Z,100000.13
2018-05-13T00:08:06.399Z,99997.11
2018-05-13T00:09:12.267Z,100000.45
2018-05-13T00:10:18.042Z,99996.24
2018-05-13T00:11:23.817Z,99995.64
2018-05-13T00:12:29.863Z,100000.52
2018-05-13T00:13:35.651Z,99997.62
2018-05-13T00:14:41.430Z,99998.41
2018-05-13T00:15:48.006Z,99998.05
2018-05-13T00:16:54.844Z,100000.22
2018-05-13T00:18:00.723Z,99998.83
2018-05-13T00:19:06.535Z,100000.03
2018-05-13T00:20:12.455Z,99998.80
2018-05-13T00:21:18.219Z,99998.11
2018-05-13T00:22:23.980Z,99998.02
2018-05-13T00:23:30.515Z,99997.45
2018-05-13T00:24:36.317Z,99996.82
2018-05-13T00:25:42.082Z,100001.82
2018-05-13T00:26:48.611Z,99997.91
2018-05-13T00:27:54.372Z,99997.73
2018-05-13T00:29:00.136Z,99990.61
2018-05-13T00:30:06.210Z,99987.55
2018-05-13T00:31:12.798Z,99984.11
2018-05-13T00:32:18.607Z,99988.50
2018-05-13T00:33:25.879Z,99979.98
2018-05-13T00:34:31.643Z,99986.37
2018-05-13T00:35:38.203Z,99983.95
2018-05-13T00:36:44.739Z,99982.52
2018-05-13T00:37:52.014Z,99982.81
2018-05-13T00:38:57.798Z,99980.85
2018-05-13T00:40:03.549Z,99976.81
2018-05-13T00:41:09.488Z,99975.41
2018-05-13T00:42:15.263Z,99977.57
2018-05-13T00:43:21.024Z,99979.98
2018-05-13T00:44:26.804Z,99976.33
2018-05-13T00:45:33.450Z,99975.43
2018-05-13T00:46:39.236Z,99982.95
2018-05-13T00:47:45.228Z,99979.41
2018-05-13T00:48:50.990Z,99977.87
2018-05-13T00:49:57.523Z,99979.50
2018-05-13T00:51:03.286Z,99976.48
2018-05-13T00:52:09.839Z,99975.70
2018-05-13T00:53:17.095Z,99974.08
2018-05-13T00:54:56.036Z,99971.30
2018-05-13T00:56:02.774Z,99976.64
2018-05-13T00:57:08.540Z,99976.78
2018-05-13T00:58:15.111Z,99970.16
2018-05-13T00:59:21.645Z,99970.82
2018-05-13T01:00:28.926Z,99971.30
2018-05-13T01:01:34.691Z,99971.03
2018-05-13T01:02:41.232Z,99976.88
2018-05-13T01:03:47.785Z,99975.97
2018-05-13T01:04:53.555Z,99971.39
2018-05-13T01:06:00.075Z,99969.73
2018-05-13T01:07:05.841Z,99967.98
2018-05-13T01:08:12.399Z,99962.20
2018-05-13T01:09:18.364Z,99965.55
2018-05-13T01:10:24.507Z,99962.54
2018-05-13T01:11:31.175Z,99960.37
2018-05-13T01:12:36.948Z,99958.95
2018-05-13T01:13:42.722Z,99961.60
2018-05-13T01:14:48.522Z,99956.30
2018-05-13T01:15:54.279Z,99956.03
2018-05-13T01:17:00.059Z,99961.18
2018-05-13T01:18:06.611Z,99953.23
2018-05-13T01:19:12.375Z,99958.20
2018-05-13T01:20:18.943Z,99953.86
2018-05-13T01:21:25.478Z,99953.92
2018-05-13T01:22:31.244Z,99956.42
2018-05-13T01:23:37.764Z,99955.42
2018-05-13T01:24:43.551Z,99963.31
2018-05-13T01:25:50.111Z,99958.98
2018-05-13T01:26:56.634Z,99958.22
2018-05-13T01:28:02.404Z,99957.38
2018-05-13T01:29:08.961Z,99952.20
2018-05-13T01:30:14.720Z,99952.74
2018-05-13T01:31:20.505Z,99958.28
2018-05-13T01:32:26.266Z,99951.81
2018-05-13T01:33:32.032Z,99949.52
2018-05-13T01:34:37.798Z,99952.90
2018-05-13T01:35:43.563Z,99953.17
2018-05-13T01:36:49.380Z,99953.92
2018-05-13T01:37:55.988Z,99953.26
2018-05-13T01:39:02.648Z,99952.92
2018-05-13T01:40:08.408Z,99953.34
2018-05-13T01:41:15.669Z,99954.04
2018-05-13T01:42:21.452Z,99956.03
2018-05-13T01:43:28.034Z,99949.16
2018-05-13T01:44:33.834Z,99950.91
2018-05-13T01:45:39.602Z,99950.38
2018-05-13T01:46:46.160Z,99943.50
2018-05-13T01:47:52.706Z,99943.86
2018-05-13T01:48:59.269Z,99941.75
2018-05-13T01:50:04.691Z,99944.41
2018-05-13T01:51:10.483Z,99939.95
2018-05-13T01:52:16.251Z,99937.52
2018-05-13T01:53:22.038Z,99941.33
2018-05-13T01:54:27.902Z,99944.80
2018-05-13T01:55:33.450Z,99946.33
2018-05-13T01:56:39.205Z,99947.59
2018-05-13T01:57:45.413Z,99943.86
2018-05-13T01:58:51.225Z,99947.37
2018-05-13T01:59:57.075Z,99940.81
2018-05-13T02:01:02.834Z,99941.48
2018-05-13T02:02:09.363Z,99939.16
2018-05-13T02:03:15.891Z,99947.10
2018-05-13T02:04:21.730Z,99943.77
2018-05-13T02:05:27.552Z,99939.19
2018-05-13T02:06:34.165Z,99940.58
2018-05-13T02:07:40.109Z,99942.92
2018-05-13T02:08:45.911Z,99938.83
2018-05-13T02:09:51.778Z,99942.69
2018-05-13T02:10:57.591Z,99942.50
2018-05-13T02:12:04.178Z,99942.34
2018-05-13T02:13:10.008Z,99942.46
2018-05-13T02:14:15.869Z,99944.33
2018-05-13T02:15:21.757Z,99945.38
2018-05-13T02:16:27.663Z,99939.55
2018-05-13T02:17:33.486Z,99938.97
2018-05-13T02:18:39.278Z,99942.05
2018-05-13T02:19:45.099Z,99942.83
2018-05-13T02:20:50.945Z,99939.70
2018-05-13T02:21:57.436Z,99938.43
2018-05-13T02:23:03.295Z,99936.74
2018-05-13T02:24:09.884Z,99941.20
2018-05-13T02:25:15.639Z,99935.48
2018-05-13T02:26:21.436Z,99938.06
2018-05-13T02:27:27.959Z,99939.45
2018-05-13T02:28:33.728Z,99944.62
2018-05-13T02:29:39.495Z,99939.87
2018-05-13T02:30:45.261Z,99938.34
2018-05-13T02:31:51.055Z,99936.65
2018-05-13T02:32:56.848Z,99931.95
2018-05-13T02:34:02.605Z,99931.26
2018-05-13T02:35:08.366Z,99930.17
2018-05-13T02:36:14.124Z,99929.45
2018-05-13T02:37:20.673Z,99928.61
2018-05-13T02:38:27.196Z,99930.86
2018-05-13T02:39:32.955Z,99930.55
2018-05-13T02:40:38.723Z,99927.86
2018-05-13T02:41:45.270Z,99927.92
2018-05-13T02:42:51.079Z,99922.77
2018-05-13T02:43:56.851Z,99924.27
2018-05-13T02:45:02.599Z,99924.27
2018-05-13T02:46:08.365Z,99918.16
2018-05-13T02:47:14.971Z,99915.39
2018-05-13T02:48:20.891Z,99926.19
2018-05-13T02:49:26.662Z,99928.05
2018-05-13T02:50:32.424Z,99920.34
2018-05-13T02:51:38.955Z,99920.64
2018-05-13T02:52:44.483Z,99924.86
2018-05-13T02:53:50.363Z,99913.38
2018-05-13T02:54:56.121Z,99914.61
2018-05-13T02:56:02.424Z,99920.05
2018-05-13T02:57:08.187Z,99915.59
2018-05-13T02:58:13.989Z,99912.16
2018-05-13T02:59:19.785Z,99914.39
2018-05-13T03:00:25.548Z,99911.80
2018-05-13T03:01:31.314Z,99914.03
2018-05-13T03:02:37.085Z,99907.19
2018-05-13T03:03:43.034Z,99911.59
2018-05-13T03:04:49.012Z,99914.77
2018-05-13T03:05:54.778Z,99917.53
2018-05-13T03:07:01.311Z,99912.45
2018-05-13T03:08:07.297Z,99917.07
2018-05-13T03:09:13.051Z,99916.95
2018-05-13T03:10:18.835Z,99915.63
2018-05-13T03:11:24.602Z,99916.00
2018-05-13T03:12:31.132Z,99921.34
2018-05-13T03:13:36.894Z,99916.23
2018-05-13T03:14:42.719Z,99914.20
2018-05-13T03:15:48.513Z,99915.47
2018-05-13T03:16:54.050Z,99915.86
2018-05-13T03:17:59.811Z,99919.08
2018-05-13T03:19:05.688Z,99913.00
2018-05-13T03:20:11.607Z,99913.91
2018-05-13T03:21:17.169Z,99906.86
2018-05-13T03:22:22.938Z,99910.41
2018-05-13T03:23:29.472Z,99910.28
2018-05-13T03:24:35.328Z,99908.11
2018-05-13T03:25:41.105Z,99905.42
2018-05-13T03:26:46.890Z,99906.69
2018-05-13T03:27:52.898Z,99904.46
2018-05-13T03:28:58.658Z,99906.57
2018-05-13T03:30:04.099Z,99904.31
2018-05-13T03:31:09.871Z,99904.16
2018-05-13T03:32:15.331Z,99905.84
2018-05-13T03:33:21.867Z,99910.12
2018-05-13T03:34:27.644Z,99909.39
2018-05-13T03:35:33.407Z,99914.73
2018-05-13T03:36:39.159Z,99911.25
2018-05-13T03:37:44.943Z,99908.39
2018-05-13T03:38:51.264Z,99912.89
2018-05-13T03:39:57.030Z,99915.00
2018-05-13T03:41:02.817Z,99912.16
2018-05-13T03:42:08.570Z,99909.34
2018-05-13T03:43:14.036Z,99915.42
2018-05-13T03:44:19.521Z,99909.66
2018-05-13T03:45:25.291Z,99909.17
2018-05-13T03:46:31.056Z,99914.47
2018-05-13T03:47:36.830Z,99907.64
2018-05-13T03:48:43.396Z,99913.53
2018-05-13T03:49:49.163Z,99906.28
2018-05-13T03:50:54.927Z,99915.84
2018-05-13T03:52:00.693Z,99913.42
2018-05-13T03:53:06.455Z,99908.59
2018-05-13T03:54:13.016Z,99909.80
2018-05-13T03:55:19.547Z,99908.90
2018-05-13T03:56:25.350Z,99906.19
2018-05-13T03:57:30.788Z,99906.55
2018-05-13T03:58:36.559Z,99910.11
2018-05-13T03:59:42.187Z,99910.62
2018-05-13T04:00:47.950Z,99915.28
2018-05-13T04:01:53.760Z,99914.50
2018-05-13T04:02:59.528Z,99910.11
2018-05-13T04:04:05.305Z,99914.44
2018-05-13T04:05:11.851Z,99909.56
2018-05-13T04:06:18.398Z,99914.16
2018-05-13T04:07:24.240Z,99910.94
2018-05-13T04:08:56.722Z,99905.68
2018-05-13T04:10:20.060Z,99909.09
2018-05-13T04:11:42.744Z,99904.82
2018-05-13T04:13:07.051Z,99902.17
2018-05-13T04:14:29.798Z,99906.35
2018-05-13T04:15:34.923Z,99911.86
2018-05-13T04:16:40.687Z,99913.06
2018-05-13T04:17:47.215Z,99906.88
2018-05-13T04:18:53.000Z,99911.05
2018-05-13T04:19:59.323Z,99915.45
2018-05-13T04:21:04.775Z,99911.84
2018-05-13T04:22:10.554Z,99913.16
2018-05-13T04:23:16.351Z,99914.85
2018-05-13T04:24:22.121Z,99909.66
2018-05-13T04:25:28.696Z,99912.88
2018-05-13T04:26:35.246Z,99903.59
2018-05-13T04:27:41.775Z,99902.36
2018-05-13T04:28:47.541Z,99907.33
2018-05-13T04:29:54.076Z,99905.01
2018-05-13T04:30:59.833Z,99906.33
2018-05-13T04:32:06.842Z,99907.27
2018-05-13T04:33:12.608Z,99908.08
2018-05-13T04:34:18.484Z,99910.97
2018-05-13T04:35:24.248Z,99907.78
2018-05-13T04:36:30.772Z,99910.52
2018-05-13T04:37:36.555Z,99909.37
2018-05-13T04:38:43.083Z,99906.44
2018-05-13T04:39:48.847Z,99911.22
2018-05-13T04:40:55.372Z,99914.17
2018-05-13T04:42:01.169Z,99913.60
2018-05-13T04:43:06.956Z,99913.75
2018-05-13T04:44:12.730Z,99903.52
2018-05-13T04:45:19.268Z,99907.91
2018-05-13T04:46:25.028Z,99902.83
2018-05-13T04:47:31.560Z,99905.92
2018-05-13T04:48:37.334Z,99910.63
2018-05-13T04:49:43.863Z,99909.36
2018-05-13T04:50:49.639Z,99905.11
2018-05-13T04:51:56.166Z,99908.61
2018-05-13T04:53:01.935Z,99908.42
2018-05-13T04:54:08.503Z,99911.34
2018-05-13T04:55:15.054Z,99908.87
2018-05-13T04:56:21.599Z,99912.37
2018-05-13T04:57:28.131Z,99908.12
2018-05-13T04:58:33.895Z,99906.61
2018-05-13T04:59:39.745Z,99907.12
2018-05-13T05:00:45.523Z,99907.56
2018-05-13T05:01:52.292Z,99904.33
2018-05-13T05:02:57.727Z,99899.88
2018-05-13T05:04:03.503Z,99903.66
2018-05-13T05:05:09.291Z,99904.15
2018-05-13T05:06:15.819Z,99903.33
2018-05-13T05:07:21.588Z,99900.58
2018-05-13T05:08:28.107Z,99900.78
2018-05-13T05:09:33.875Z,99892.82
2018-05-13T05:10:40.435Z,99893.70
2018-05-13T05:11:46.968Z,99897.27
2018-05-13T05:12:52.783Z,99896.19
2018-05-13T05:13:58.550Z,99896.96
2018-05-13T05:15:04.319Z,99896.13
2018-05-13T05:16:10.107Z,99898.09
2018-05-13T05:17:15.880Z,99895.79
2018-05-13T05:18:21.641Z,99895.80
2018-05-13T05:19:28.922Z,99899.30
2018-05-13T05:20:35.543Z,99899.17
2018-05-13T05:21:41.324Z,99897.38
2018-05-13T05:22:47.859Z,99902.16
2018-05-13T05:23:53.629Z,99892.50
2018-05-13T05:25:00.889Z,99890.54
2018-05-13T05:26:06.642Z,99895.98
2018-05-13T05:27:12.430Z,99898.45
2018-05-13T05:28:18.204Z,99900.63
2018-05-13T05:29:23.971Z,99896.36
2018-05-13T05:30:30.507Z,99895.91
2018-05-13T05:31:36.267Z,99900.13
2018-05-13T05:32:42.853Z,99901.16
2018-05-13T05:33:49.375Z,99902.42
2018-05-13T05:34:54.858Z,99903.56
2018-05-13T05:36:00.796Z,99909.42
2018-05-13T05:37:07.331Z,99901.33
2018-05-13T05:38:13.127Z,99899.16
2018-05-13T05:39:18.883Z,99898.73
2018-05-13T05:40:24.646Z,99906.77
2018-05-13T05:41:31.188Z,99906.22
2018-05-13T05:42:36.956Z,99906.64
2018-05-13T05:43:42.820Z,99903.69
2018-05-13T05:44:48.760Z,99901.80
2018-05-13T05:45:55.303Z,99899.92
2018-05-13T05:47:01.069Z,99900.89
2018-05-13T05:48:07.603Z,99893.04
2018-05-13T05:49:13.397Z,99897.92
2018-05-13T05:50:19.174Z,99896.09
2018-05-13T05:51:24.952Z,99889.02
2018-05-13T05:52:31.492Z,99883.07
2018-05-13T05:53:37.248Z,99890.48
2018-05-13T05:54:43.035Z,99894.48
2018-05-13T05:55:48.795Z,99890.97
2018-05-13T05:56:54.555Z,99894.81
2018-05-13T05:58:00.315Z,99891.01
2018-05-13T05:59:06.855Z,99895.16
2018-05-13T06:00:12.648Z,99893.65
2018-05-13T06:01:18.425Z,99893.56
2018-05-13T06:02:24.196Z,99893.52
2018-05-13T06:03:29.972Z,99892.34
2018-05-13T06:04:35.778Z,99892.98
2018-05-13T06:05:41.550Z,99896.89
2018-05-13T06:06:48.093Z,99894.13
2018-05-13T06:07:53.859Z,99896.88
2018-05-13T06:08:59.631Z,99901.02
2018-05-13T06:10:04.728Z,99891.61
2018-05-13T06:11:10.515Z,99886.44
2018-05-13T06:12:16.367Z,99896.53
2018-05-13T06:13:23.046Z,99887.88
2018-05-13T06:14:28.922Z,99891.72
2018-05-13T06:15:34.687Z,99892.53
2018-05-13T06:16:40.482Z,99898.44
2018-05-13T06:17:46.999Z,99893.05
2018-05-13T06:18:52.768Z,99885.60
2018-05-13T06:19:58.523Z,99891.55
2018-05-13T06:21:05.056Z,99886.44
2018-05-13T06:22:10.873Z,99889.84
2018-05-13T06:23:16.636Z,99893.73
2018-05-13T06:24:22.384Z,99890.84
2018-05-13T06:25:28.151Z,99891.20
2018-05-13T06:26:34.679Z,99892.25
2018-05-13T06:27:40.459Z,99894.39
2018-05-13T06:28:46.255Z,99888.04
2018-05-13T06:29:52.028Z,99888.59
2018-05-13T06:30:57.791Z,99876.90
2018-05-13T06:32:04.368Z,99874.00
2018-05-13T06:33:10.147Z,99880.81
2018-05-13T06:34:15.904Z,99876.52
2018-05-13T06:35:23.179Z,99876.16
2018-05-13T06:36:29.323Z,99876.48
2018-05-13T06:37:35.203Z,99875.32
2018-05-13T06:38:41.022Z,99874.95
2018-05-13T06:39:46.791Z,99875.84
2018-05-13T06:40:53.316Z,99873.38
2018-05-13T06:41:59.083Z,99877.27
2018-05-13T06:43:04.832Z,99876.04
2018-05-13T06:44:11.381Z,99874.47
2018-05-13T06:45:17.224Z,99874.27
2018-05-13T06:46:23.115Z,99873.35
2018-05-13T06:47:28.908Z,99877.34
2018-05-13T06:48:34.665Z,99867.97
2018-05-13T06:49:41.215Z,99869.66
2018-05-13T06:50:47.826Z,99870.64
2018-05-13T06:51:53.739Z,99871.16
2018-05-13T06:53:00.271Z,99874.13
2018-05-13T06:54:06.046Z,99866.67
2018-05-13T06:55:11.890Z,99866.67
2018-05-13T06:56:17.647Z,99869.78
2018-05-13T06:57:23.551Z,99867.38
2018-05-13T06:58:31.067Z,99870.16
2018-05-13T06:59:36.840Z,99870.70
2018-05-13T07:00:42.631Z,99860.88
2018-05-13T07:01:48.406Z,99867.86
2018-05-13T07:02:54.191Z,99866.31
2018-05-13T07:04:00.156Z,99870.09
2018-05-13T07:05:06.691Z,99865.38
2018-05-13T07:06:12.471Z,99869.45
2018-05-13T07:07:18.267Z,99872.25
2018-05-13T07:08:24.033Z,99871.30
2018-05-13T07:09:30.572Z,99870.36
2018-05-13T07:10:36.352Z,99867.66
2018-05-13T07:11:42.903Z,99862.47
2018-05-13T07:12:49.466Z,99870.94
2018-05-13T07:13:55.224Z,99874.72
2018-05-13T07:15:01.028Z,99871.50
2018-05-13T07:16:07.629Z,99871.38
2018-05-13T07:17:13.525Z,99869.73
2018-05-13T07:18:19.514Z,99868.91
2018-05-13T07:19:26.059Z,99867.24
2018-05-13T07:20:32.619Z,99867.86
2018-05-13T07:21:39.232Z,99870.45
2018-05-13T07:22:45.584Z,99870.73
2018-05-13T07:23:51.337Z,99873.59
2018-05-13T07:24:57.103Z,99867.60
2018-05-13T07:26:02.871Z,99860.75
2018-05-13T07:27:08.644Z,99856.08
2018-05-13T07:28:14.710Z,99864.53
2018-05-13T07:29:20.491Z,99851.60
2018-05-13T07:30:27.041Z,99851.42
2018-05-13T07:31:33.053Z,99855.72
2018-05-13T07:32:39.743Z,99853.45
2018-05-13T07:33:45.530Z,99858.42
2018-05-13T07:34:51.317Z,99847.98
2018-05-13T07:35:57.088Z,99846.94
2018-05-13T07:37:03.730Z,99853.82
2018-05-13T07:38:09.506Z,99858.91
2018-05-13T07:39:16.043Z,99855.17
2018-05-13T07:40:22.829Z,99859.19
2018-05-13T07:41:28.615Z,99852.10
2018-05-13T07:42:34.405Z,99852.30
2018-05-13T07:43:40.154Z,99852.37
2018-05-13T07:44:46.015Z,99846.41
2018-05-13T07:45:51.773Z,99849.23
2018-05-13T07:46:57.560Z,99847.22
2018-05-13T07:48:03.335Z,99857.92
2018-05-13T07:49:08.927Z,99842.46
2018-05-13T07:50:15.488Z,99845.36
2018-05-13T07:51:21.359Z,99843.48
2018-05-13T07:52:28.071Z,99840.11
2018-05-13T07:53:33.829Z,99837.38
2018-05-13T07:54:39.610Z,99838.36
2018-05-13T07:55:46.193Z,99841.86
2018-05-13T07:56:52.071Z,99838.12
2018-05-13T07:57:57.511Z,99838.25
2018-05-13T07:59:03.741Z,99839.61
2018-05-13T08:00:09.536Z,99838.48
2018-05-13T08:01:15.409Z,99834.35
2018-05-13T08:02:21.219Z,99836.20
2018-05-13T08:03:27.765Z,99841.30
2018-05-13T08:04:33.928Z,99835.42
2018-05-13T08:05:39.696Z,99837.53
2018-05-13T08:06:45.170Z,99832.16
2018-05-13T08:07:51.108Z,99834.11
2018-05-13T08:08:57.533Z,99831.00
2018-05-13T08:10:03.623Z,99829.22
2018-05-13T08:11:09.972Z,99835.47
2018-05-13T08:12:16.275Z,99834.09
2018-05-13T08:13:21.821Z,99840.33
2018-05-13T08:14:27.340Z,99834.70
2018-05-13T08:15:32.903Z,99829.13
2018-05-13T08:16:38.335Z,99830.70
2018-05-13T08:17:43.853Z,99836.67
2018-05-13T08:18:49.352Z,99830.24
2018-05-13T08:19:55.725Z,99820.55
2018-05-13T08:21:01.357Z,99822.77
2018-05-13T08:22:07.168Z,99831.20
2018-05-13T08:23:12.807Z,99826.77
2018-05-13T08:24:19.345Z,99825.24
2018-05-13T08:25:24.767Z,99824.90
2018-05-13T08:26:30.322Z,99823.86
2018-05-13T08:27:35.895Z,99822.80
2018-05-13T08:28:42.206Z,99825.64
2018-05-13T08:29:47.728Z,99827.06
2018-05-13T08:30:53.236Z,99823.92
2018-05-13T08:31:59.495Z,99821.19
2018-05-13T08:33:04.993Z,99824.28
2018-05-13T08:34:10.507Z,99823.33
2018-05-13T08:35:16.003Z,99817.55
2018-05-13T08:36:21.767Z,99815.48
2018-05-13T08:37:27.279Z,99816.45
2018-05-13T08:38:32.822Z,99814.69
2018-05-13T08:39:38.599Z,99817.53
2018-05-13T08:40:44.302Z,99813.20
2018-05-13T08:41:50.518Z,99818.08
2018-05-13T08:42:56.307Z,99819.55
2018-05-13T08:44:02.042Z,99813.36
2018-05-13T08:45:08.491Z,99812.81
2018-05-13T08:46:14.456Z,99818.23
2018-05-13T08:47:19.953Z,99815.08
2018-05-13T08:48:26.226Z,99813.80
2018-05-13T08:49:32.680Z,99811.41
2018-05-13T08:50:38.195Z,99806.91
2018-05-13T08:51:44.468Z,99808.09
2018-05-13T08:52:49.754Z,99810.36
2018-05-13T08:53:55.253Z,99807.92
2018-05-13T08:55:00.738Z,99804.95
2018-05-13T08:56:07.275Z,99805.25
2018-05-13T08:57:12.760Z,99797.55
2018-05-13T08:58:19.021Z,99798.63
2018-05-13T08:59:24.512Z,99797.39
2018-05-13T09:00:30.007Z,99804.21
2018-05-13T09:01:35.747Z,99802.88
2018-05-13T09:02:41.256Z,99799.53
2018-05-13T09:03:47.529Z,99800.53
2018-05-13T09:04:53.017Z,99802.16
2018-05-13T09:05:58.517Z,99799.03
2018-05-13T09:07:04.053Z,99791.13
2018-05-13T09:08:09.544Z,99794.83
2018-05-13T09:09:15.830Z,99786.61
2018-05-13T09:10:21.322Z,99789.13
2018-05-13T09:11:26.840Z,99791.06
2018-05-13T09:12:32.362Z,99789.99
2018-05-13T09:13:37.864Z,99785.86
2018-05-13T09:14:43.364Z,99786.61
2018-05-13T09:15:49.625Z,99785.95
2018-05-13T09:16:55.901Z,99789.42
2018-05-13T09:18:02.193Z,99790.67
2018-05-13T09:19:07.704Z,99788.31
2018-05-13T09:20:13.206Z,99786.67
2018-05-13T09:21:19.469Z,99785.97
2018-05-13T09:22:25.732Z,99780.64
2018-05-13T09:23:32.079Z,99777.92
2018-05-13T09:24:38.388Z,99783.38
2018-05-13T09:25:43.883Z,99780.80
2018-05-13T09:26:49.376Z,99775.31
2018-05-13T09:27:54.894Z,99778.41
2018-05-13T09:29:00.619Z,99778.56
2018-05-13T09:30:05.810Z,99781.21
2018-05-13T09:31:12.073Z,99771.50
2018-05-13T09:32:17.595Z,99774.76
2018-05-13T09:33:24.656Z,99768.69
2018-05-13T09:34:31.146Z,99764.94
2018-05-13T09:35:36.670Z,99766.75
2018-05-13T09:36:42.185Z,99763.05
2018-05-13T09:37:47.667Z,99761.28
2018-05-13T09:38:53.167Z,99762.27
2018-05-13T09:39:59.450Z,99759.95
2018-05-13T09:41:04.944Z,99767.61
2018-05-13T09:42:10.440Z,99762.92
2018-05-13T09:43:15.923Z,99759.65
2018-05-13T09:44:22.451Z,99760.74
2018-05-13T09:45:27.976Z,99755.89
2018-05-13T09:46:33.460Z,99758.52
2018-05-13T09:47:39.722Z,99759.30
2018-05-13T09:48:46.023Z,99764.48
2018-05-13T09:49:51.515Z,99763.04
2018-05-13T09:50:57.814Z,99751.25
2018-05-13T09:52:03.295Z,99750.26
2018-05-13T09:53:09.580Z,99751.94
2018-05-13T09:54:15.071Z,99750.47
2018-05-13T09:55:20.550Z,99748.27
2018-05-13T09:56:26.068Z,99741.14
2018-05-13T09:57:31.590Z,99746.91
2018-05-13T09:58:37.257Z,99742.60
2018-05-13T09:59:43.001Z,99746.91
2018-05-13T10:00:48.783Z,99746.05
2018-05-13T10:01:54.264Z,99734.73
2018-05-13T10:03:00.003Z,99735.13
2018-05-13T10:04:05.831Z,99751.84
2018-05-13T10:05:11.224Z,99740.05
2018-05-13T10:06:16.973Z,99736.94
2018-05-13T10:07:22.755Z,99740.98
2018-05-13T10:08:28.506Z,99740.42
2018-05-13T10:09:34.260Z,99736.30
2018-05-13T10:10:40.207Z,99738.80
2018-05-13T10:11:46.736Z,99739.32
2018-05-13T10:12:52.535Z,99738.41
2018-05-13T10:13:58.296Z,99732.48
2018-05-13T10:15:04.055Z,99731.44
2018-05-13T10:16:09.578Z,99735.49
2018-05-13T10:17:15.354Z,99728.45
2018-05-13T10:18:21.139Z,99737.48
2018-05-13T10:19:26.899Z,99734.39
2018-05-13T10:20:32.852Z,99725.41
2018-05-13T10:21:38.415Z,99741.19
2018-05-13T10:22:44.167Z,99731.28
2018-05-13T10:23:49.950Z,99742.84
2018-05-13T10:24:55.712Z,99745.55
2018-05-13T10:26:01.471Z,99747.77
2018-05-13T10:27:07.226Z,99738.73
2018-05-13T10:28:13.184Z,99734.69
2018-05-13T10:29:18.728Z,99738.62
2018-05-13T10:30:24.518Z,99736.07
2018-05-13T10:31:30.284Z,99732.21
2018-05-13T10:32:37.738Z,99731.33
2018-05-13T10:33:43.483Z,99733.86
2018-05-13T10:34:49.269Z,99729.51
2018-05-13T10:35:55.024Z,99736.06
2018-05-13T10:37:00.779Z,99739.92
2018-05-13T10:38:07.423Z,99729.92
2018-05-13T10:39:13.164Z,99741.63
2018-05-13T10:40:18.935Z,99738.50
2018-05-13T10:41:24.685Z,99726.13
2018-05-13T10:42:30.448Z,99731.19
2018-05-13T10:43:36.186Z,99730.16
2018-05-13T10:44:41.949Z,99736.79
2018-05-13T10:45:49.627Z,99728.43
2018-05-13T10:46:55.375Z,99732.97
2018-05-13T10:48:01.117Z,99739.14
2018-05-13T10:49:06.879Z,99735.33
2018-05-13T10:50:14.140Z,99734.41
2018-05-13T10:51:19.958Z,99730.81
2018-05-13T10:52:26.526Z,99729.56
2018-05-13T10:53:32.435Z,99725.83
2018-05-13T10:54:39.080Z,99728.18
2018-05-13T10:55:45.638Z,99732.02
2018-05-13T10:56:52.200Z,99721.93
2018-05-13T10:57:57.950Z,99725.18
2018-05-13T10:59:04.498Z,99726.79
2018-05-13T11:00:11.011Z,99739.21
2018-05-13T11:01:16.763Z,99725.91
2018-05-13T11:02:22.560Z,99727.20
2018-05-13T11:03:28.436Z,99726.61
2018-05-13T11:04:34.451Z,99732.00
2018-05-13T11:05:40.223Z,99726.09
2018-05-13T11:06:45.971Z,99730.17
2018-05-13T11:07:51.880Z,99716.27
2018-05-13T11:08:58.065Z,99719.17
2018-05-13T11:10:03.813Z,99718.45
2018-05-13T11:11:09.880Z,99721.89
2018-05-13T11:12:15.647Z,99712.94
2018-05-13T11:13:21.955Z,99710.66
2018-05-13T11:14:27.558Z,99707.27
2018-05-13T11:15:33.577Z,99724.52
2018-05-13T11:16:39.435Z,99713.64
2018-05-13T11:17:45.906Z,99711.45
2018-05-13T11:18:53.109Z,99720.06
2018-05-13T11:19:58.980Z,99714.72
2018-05-13T11:21:04.905Z,99711.59
2018-05-13T11:22:11.475Z,99712.22
2018-05-13T11:23:17.253Z,99708.27
2018-05-13T11:24:23.218Z,99700.47
2018-05-13T11:25:29.722Z,99702.35
2018-05-13T11:26:35.622Z,99708.77
2018-05-13T11:27:41.387Z,99709.41
2018-05-13T11:28:47.290Z,99705.56
2018-05-13T11:29:53.924Z,99699.83
2018-05-13T11:30:59.707Z,99703.09
2018-05-13T11:32:06.228Z,99703.92
2018-05-13T11:33:11.975Z,99701.94
2018-05-13T11:34:17.734Z,99702.03
2018-05-13T11:35:23.513Z,99698.41
2018-05-13T11:36:29.259Z,99708.78
2018-05-13T11:37:35.082Z,99699.53
2018-05-13T11:38:41.721Z,99694.03
2018-05-13T11:39:48.250Z,99698.20
2018-05-13T11:40:54.033Z,99697.34
2018-05-13T11:42:00.551Z,99697.15
2018-05-13T11:43:06.307Z,99685.12
2018-05-13T11:44:12.266Z,99696.84
2018-05-13T11:45:18.023Z,99696.64
2018-05-13T11:46:24.561Z,99686.98
2018-05-13T11:47:31.073Z,99690.81
2018-05-13T11:48:36.830Z,99688.33
2018-05-13T11:49:42.588Z,99687.29
2018-05-13T11:50:48.350Z,99686.26
2018-05-13T11:51:54.126Z,99676.50
2018-05-13T11:52:59.878Z,99685.12
2018-05-13T11:54:05.297Z,99679.63
2018-05-13T11:55:11.070Z,99688.34
2018-05-13T11:56:16.842Z,99683.26
2018-05-13T11:57:23.401Z,99685.94
2018-05-13T11:58:29.156Z,99685.94
2018-05-13T11:59:35.683Z,99689.06
2018-05-13T12:00:41.448Z,99678.38
2018-05-13T12:01:48.051Z,99680.23
2018-05-13T12:02:53.745Z,99675.98
2018-05-13T12:03:59.497Z,99676.71
2018-05-13T12:05:06.025Z,99682.55
2018-05-13T12:06:11.784Z,99676.20
2018-05-13T12:07:19.071Z,99673.18
2018-05-13T12:08:24.843Z,99671.75
2018-05-13T12:09:31.374Z,99674.33
2018-05-13T12:10:37.131Z,99670.27
2018-05-13T12:11:43.678Z,99670.28
2018-05-13T12:12:50.207Z,99669.97
2018-05-13T12:13:56.028Z,99661.45
2018-05-13T12:15:01.801Z,99663.44
2018-05-13T12:16:07.784Z,99662.89
2018-05-13T12:17:14.343Z,99667.06
2018-05-13T12:18:20.854Z,99652.94
2018-05-13T12:19:26.632Z,99665.27
2018-05-13T12:20:32.402Z,99666.52
2018-05-13T12:21:38.834Z,99658.86
2018-05-13T12:22:44.615Z,99656.69
2018-05-13T12:23:50.359Z,99655.24
2018-05-13T12:24:56.131Z,99653.17
2018-05-13T12:26:01.878Z,99654.84
2018-05-13T12:27:07.620Z,99656.30
2018-05-13T12:28:13.458Z,99654.41
2018-05-13T12:29:19.214Z,99658.34
2018-05-13T12:30:24.992Z,99660.23
2018-05-13T12:31:31.511Z,99659.19
2018-05-13T12:32:37.263Z,99655.55
2018-05-13T12:33:43.032Z,99656.19
2018-05-13T12:34:49.543Z,99665.73
2018-05-13T12:35:55.400Z,99657.12
2018-05-13T12:37:01.144Z,99656.69
2018-05-13T12:38:06.968Z,99656.38
2018-05-13T12:39:12.931Z,99656.70
2018-05-13T12:40:18.672Z,99660.95
2018-05-13T12:41:25.997Z,99653.47
2018-05-13T12:42:32.546Z,99647.36
2018-05-13T12:43:39.066Z,99659.39
2018-05-13T12:44:44.824Z,99651.92
2018-05-13T12:45:50.590Z,99649.84
2018-05-13T12:46:57.130Z,99648.49
2018-05-13T12:48:03.672Z,99646.11
2018-05-13T12:49:09.423Z,99642.27
2018-05-13T12:50:15.198Z,99645.27
2018-05-13T12:51:20.910Z,99645.58
2018-05-13T12:52:26.683Z,99645.88
2018-05-13T12:53:32.442Z,99658.36
2018-05-13T12:54:38.190Z,99643.19
2018-05-13T12:55:43.943Z,99654.08
2018-05-13T12:56:49.716Z,99637.91